createdAt,value
2023-02-26T00:00:12.668Z,98141.00
2023-02-26T00:02:39.195Z,98131.00
2023-02-26T00:05:06.759Z,98137.00
2023-02-26T00:07:33.259Z,98141.00
2023-02-26T00:10:01.520Z,98143.00
2023-02-26T00:12:29.483Z,98135.00
2023-02-26T00:14:56.756Z,98143.00
2023-02-26T00:18:01.983Z,98145.00
2023-02-26T00:20:28.546Z,98145.00
2023-02-26T00:22:55.368Z,98139.00
2023-02-26T00:25:21.913Z,98141.00
2023-02-26T00:27:48.810Z,98150.00
2023-02-26T00:30:15.620Z,98152.00
2023-02-26T00:32:42.725Z,98158.00
2023-02-26T00:35:13.583Z,98156.00
2023-02-26T00:37:55.429Z,98155.00
2023-02-26T00:40:49.040Z,98156.00
2023-02-26T00:43:22.685Z,98154.00
2023-02-26T00:46:30.339Z,98155.00
2023-02-26T00:49:11.735Z,98149.00
2023-02-26T00:51:50.472Z,98159.00
2023-02-26T00:54:21.822Z,98150.00
2023-02-26T00:56:53.074Z,98150.00
2023-02-26T00:59:20.653Z,98154.00
2023-02-26T01:01:48.685Z,98160.00
2023-02-26T01:04:18.425Z,98156.00
2023-02-26T01:06:48.098Z,98156.00
2023-02-26T01:09:29.712Z,98156.00
2023-02-26T01:12:03.368Z,98156.00
2023-02-26T01:14:32.100Z,98159.00
2023-02-26T01:17:25.455Z,98157.00
2023-02-26T01:20:05.351Z,98162.00
2023-02-26T01:22:37.353Z,98163.00
2023-02-26T01:25:08.399Z,98160.00
2023-02-26T01:27:35.804Z,98155.00
2023-02-26T01:30:04.561Z,98167.00
2023-02-26T01:32:59.317Z,98166.00
2023-02-26T01:35:36.962Z,98164.00
2023-02-26T01:38:27.349Z,98164.00
2023-02-26T01:41:21.828Z,98159.00
2023-02-26T01:44:01.047Z,98166.00
2023-02-26T01:46:42.900Z,98167.00
2023-02-26T01:49:15.887Z,98156.00
2023-02-26T01:51:43.434Z,98153.00
2023-02-26T01:54:10.152Z,98159.00
2023-02-26T01:56:37.862Z,98159.00
2023-02-26T01:59:06.056Z,98164.00
2023-02-26T02:01:33.432Z,98161.00
2023-02-26T02:04:00.677Z,98166.00
2023-02-26T02:06:29.717Z,98158.00
2023-02-26T02:08:56.583Z,98167.00
2023-02-26T02:11:23.536Z,98157.00
2023-02-26T02:14:15.811Z,98159.00
2023-02-26T02:17:11.364Z,98160.00
2023-02-26T02:19:56.343Z,98157.00
2023-02-26T02:22:49.146Z,98168.00
2023-02-26T02:25:40.462Z,98169.00
2023-02-26T02:28:25.426Z,98170.00
2023-02-26T02:31:22.967Z,98169.00
2023-02-26T02:33:51.913Z,98168.00
2023-02-26T02:36:35.839Z,98168.00
2023-02-26T02:39:08.013Z,98172.00
2023-02-26T02:41:40.364Z,98176.00
2023-02-26T02:44:12.427Z,98180.00
2023-02-26T02:46:41.718Z,98167.00
2023-02-26T02:49:21.563Z,98180.00
2023-02-26T02:51:53.052Z,98174.00
2023-02-26T02:54:34.034Z,98173.00
2023-02-26T02:57:17.664Z,98173.00
2023-02-26T02:59:48.142Z,98181.00
2023-02-26T03:02:31.010Z,98185.00
2023-02-26T03:04:57.860Z,98192.00
2023-02-26T03:07:24.975Z,98182.00
2023-02-26T03:09:52.404Z,98189.00
2023-02-26T03:12:19.499Z,98183.00
2023-02-26T03:14:46.216Z,98180.00
2023-02-26T03:17:23.932Z,98186.00
2023-02-26T03:19:57.551Z,98187.00
2023-02-26T03:22:51.530Z,98192.00
2023-02-26T03:25:51.336Z,98195.00
2023-02-26T03:28:50.585Z,98197.00
2023-02-26T03:31:23.142Z,98199.00
2023-02-26T03:34:10.315Z,98197.00
2023-02-26T03:36:56.162Z,98196.00
2023-02-26T03:39:31.559Z,98206.00
2023-02-26T03:42:07.340Z,98206.00
2023-02-26T03:45:07.517Z,98205.00
2023-02-26T03:47:35.772Z,98214.00
2023-02-26T03:50:08.300Z,98209.00
2023-02-26T03:52:48.375Z,98213.00
2023-02-26T03:55:45.458Z,98207.00
2023-02-26T03:58:30.663Z,98215.00
2023-02-26T04:01:23.434Z,98209.00
2023-02-26T04:03:59.287Z,98216.00
2023-02-26T04:06:27.212Z,98224.00
2023-02-26T04:08:56.659Z,98213.00
2023-02-26T04:11:25.728Z,98232.00
2023-02-26T04:13:52.495Z,98228.00
2023-02-26T04:16:20.172Z,98236.00
2023-02-26T04:18:46.776Z,98225.00
2023-02-26T04:21:15.896Z,98236.00
2023-02-26T04:23:42.716Z,98236.00
2023-02-26T04:26:09.665Z,98241.00
2023-02-26T04:28:40.174Z,98245.00
2023-02-26T04:31:07.623Z,98242.00
2023-02-26T04:33:34.376Z,98247.00
2023-02-26T04:36:01.216Z,98258.00
2023-02-26T04:38:28.381Z,98258.00
2023-02-26T04:40:55.167Z,98260.00
2023-02-26T04:43:21.883Z,98251.00
2023-02-26T04:46:10.819Z,98244.00
2023-02-26T04:48:37.595Z,98250.00
2023-02-26T04:51:04.256Z,98253.00
2023-02-26T04:53:31.140Z,98263.00
2023-02-26T04:55:57.662Z,98262.00
2023-02-26T04:58:24.194Z,98257.00
2023-02-26T05:00:53.558Z,98256.00
2023-02-26T05:03:20.872Z,98261.00
2023-02-26T05:05:47.429Z,98254.00
2023-02-26T05:08:14.563Z,98259.00
2023-02-26T05:10:41.075Z,98270.00
2023-02-26T05:13:07.615Z,98265.00
2023-02-26T05:15:34.908Z,98278.00
2023-02-26T05:18:01.416Z,98284.00
2023-02-26T05:20:29.127Z,98283.00
2023-02-26T05:22:55.686Z,98293.00
2023-02-26T05:25:22.553Z,98296.00
2023-02-26T05:27:49.062Z,98295.00
2023-02-26T05:30:16.711Z,98296.00
2023-02-26T05:32:43.806Z,98310.00
2023-02-26T05:35:10.574Z,98299.00
2023-02-26T05:37:37.523Z,98310.00
2023-02-26T05:40:11.510Z,98309.00
2023-02-26T05:42:39.178Z,98319.00
2023-02-26T05:45:06.724Z,98312.00
2023-02-26T05:47:34.400Z,98323.00
2023-02-26T05:50:01.436Z,98323.00
2023-02-26T05:52:28.001Z,98325.00
2023-02-26T05:54:54.698Z,98322.00
2023-02-26T05:57:21.186Z,98326.00
2023-02-26T05:59:47.790Z,98327.00
2023-02-26T06:02:14.553Z,98331.00
2023-02-26T06:04:41.117Z,98333.00
2023-02-26T06:07:07.629Z,98333.00
2023-02-26T06:09:34.160Z,98338.00
2023-02-26T06:12:00.669Z,98344.00
2023-02-26T06:14:27.273Z,98344.00
2023-02-26T06:16:53.781Z,98357.00
2023-02-26T06:19:21.652Z,98356.00
2023-02-26T06:21:48.226Z,98359.00
2023-02-26T06:24:14.844Z,98373.00
2023-02-26T06:26:41.498Z,98359.00
2023-02-26T06:29:08.544Z,98371.00
2023-02-26T06:31:35.167Z,98378.00
2023-02-26T06:34:01.800Z,98375.00
2023-02-26T06:36:28.484Z,98383.00
2023-02-26T06:38:55.175Z,98390.00
2023-02-26T06:41:21.872Z,98390.00
2023-02-26T06:43:48.343Z,98392.00
2023-02-26T06:46:14.932Z,98390.00
2023-02-26T06:48:41.440Z,98410.00
2023-02-26T06:51:07.962Z,98415.00
2023-02-26T06:53:34.576Z,98420.00
2023-02-26T06:56:01.236Z,98420.00
2023-02-26T06:58:27.841Z,98422.00
2023-02-26T07:00:54.386Z,98422.00
2023-02-26T07:03:21.156Z,98437.00
2023-02-26T07:05:47.802Z,98436.00
2023-02-26T07:08:14.732Z,98432.00
2023-02-26T07:10:41.823Z,98430.00
2023-02-26T07:13:08.839Z,98440.00
2023-02-26T07:15:35.539Z,98438.00
2023-02-26T07:18:02.089Z,98445.00
2023-02-26T07:20:29.605Z,98461.00
2023-02-26T07:22:56.205Z,98452.00
2023-02-26T07:25:22.820Z,98455.00
2023-02-26T07:27:49.412Z,98452.00
2023-02-26T07:30:16.619Z,98462.00
2023-02-26T07:32:43.718Z,98462.00
2023-02-26T07:35:10.646Z,98470.00
2023-02-26T07:37:37.756Z,98464.00
2023-02-26T07:40:05.142Z,98480.00
2023-02-26T07:42:31.683Z,98465.00
2023-02-26T07:44:59.286Z,98480.00
2023-02-26T07:47:26.942Z,98484.00
2023-02-26T07:49:53.462Z,98485.00
2023-02-26T07:52:20.118Z,98487.00
2023-02-26T07:54:46.677Z,98493.00
2023-02-26T07:57:13.313Z,98486.00
2023-02-26T07:59:39.936Z,98490.00
2023-02-26T08:02:07.221Z,98486.00
2023-02-26T08:04:34.027Z,98489.00
2023-02-26T08:07:01.605Z,98488.00
2023-02-26T08:09:28.581Z,98498.00
2023-02-26T08:11:55.476Z,98501.00
2023-02-26T08:14:23.095Z,98505.00
2023-02-26T08:16:49.866Z,98506.00
2023-02-26T08:19:19.078Z,98506.00
2023-02-26T08:21:45.642Z,98520.00
2023-02-26T08:24:12.464Z,98516.00
2023-02-26T08:26:39.051Z,98519.00
2023-02-26T08:29:05.915Z,98525.00
2023-02-26T08:31:34.648Z,98536.00
2023-02-26T08:34:01.423Z,98545.00
2023-02-26T08:36:30.647Z,98529.00
2023-02-26T08:38:58.296Z,98530.00
2023-02-26T08:41:29.867Z,98539.00
2023-02-26T08:43:56.556Z,98535.00
2023-02-26T08:46:23.495Z,98538.00
2023-02-26T08:48:50.169Z,98534.00
2023-02-26T08:51:16.691Z,98534.00
2023-02-26T08:53:45.345Z,98529.00
2023-02-26T08:56:12.012Z,98535.00
2023-02-26T08:58:38.579Z,98545.00
2023-02-26T09:01:05.413Z,98542.00
2023-02-26T09:03:32.108Z,98546.00
2023-02-26T09:05:58.578Z,98547.00
2023-02-26T09:08:25.529Z,98550.00
2023-02-26T09:10:52.041Z,98555.00
2023-02-26T09:13:19.058Z,98549.00
2023-02-26T09:15:45.650Z,98552.00
2023-02-26T09:18:15.549Z,98565.00
2023-02-26T09:20:43.754Z,98564.00
2023-02-26T09:23:10.437Z,98573.00
2023-02-26T09:25:37.391Z,98572.00
2023-02-26T09:28:04.720Z,98582.00
2023-02-26T09:30:31.910Z,98569.00
2023-02-26T09:32:58.792Z,98566.00
2023-02-26T09:35:25.748Z,98579.00
2023-02-26T09:37:52.247Z,98586.00
2023-02-26T09:40:32.356Z,98587.00
2023-02-26T09:43:13.162Z,98577.00
2023-02-26T09:45:44.667Z,98587.00
2023-02-26T09:48:15.337Z,98612.00
2023-02-26T09:50:53.497Z,98596.00
2023-02-26T09:53:24.437Z,98600.00
2023-02-26T09:55:53.734Z,98595.00
2023-02-26T09:58:31.852Z,98605.00
2023-02-26T10:01:19.825Z,98609.00
2023-02-26T10:04:14.126Z,98621.00
2023-02-26T10:07:25.887Z,98623.00
2023-02-26T10:10:15.236Z,98616.00
2023-02-26T10:12:44.481Z,98594.00
2023-02-26T10:15:40.040Z,98621.00
2023-02-26T10:18:17.520Z,98626.00
2023-02-26T10:21:08.614Z,98617.00
2023-02-26T10:23:44.061Z,98617.00
2023-02-26T10:26:29.966Z,98624.00
2023-02-26T10:29:23.307Z,98629.00
2023-02-26T10:32:17.610Z,98628.00
2023-02-26T10:34:54.900Z,98629.00
2023-02-26T10:37:41.848Z,98629.00
2023-02-26T10:40:28.525Z,98625.00
2023-02-26T10:43:04.621Z,98631.00
2023-02-26T10:46:07.143Z,98633.00
2023-02-26T10:48:59.567Z,98640.00
2023-02-26T10:51:33.593Z,98643.00
2023-02-26T10:54:10.621Z,98637.00
2023-02-26T10:56:37.111Z,98641.00
2023-02-26T10:59:03.726Z,98645.00
2023-02-26T11:01:31.268Z,98648.00
2023-02-26T11:04:12.461Z,98651.00
2023-02-26T11:06:43.357Z,98660.00
2023-02-26T11:09:22.522Z,98655.00
2023-02-26T11:11:53.856Z,98648.00
2023-02-26T11:14:22.084Z,98653.00
2023-02-26T11:17:01.585Z,98656.00
2023-02-26T11:19:38.145Z,98663.00
2023-02-26T11:22:07.827Z,98663.00
2023-02-26T11:24:40.425Z,98664.00
2023-02-26T11:27:13.692Z,98671.00
2023-02-26T11:29:42.956Z,98669.00
2023-02-26T11:32:23.100Z,98663.00
2023-02-26T11:34:52.012Z,98668.00
2023-02-26T11:37:34.045Z,98669.00
2023-02-26T11:40:25.241Z,98665.00
2023-02-26T11:43:00.477Z,98672.00
2023-02-26T11:45:27.295Z,98671.00
2023-02-26T11:48:02.353Z,98683.00
2023-02-26T11:50:31.046Z,98672.00
2023-02-26T11:53:07.320Z,98684.00
2023-02-26T11:55:38.530Z,98679.00
2023-02-26T11:58:17.448Z,98687.00
2023-02-26T12:00:45.009Z,98668.00
2023-02-26T12:03:22.122Z,98683.00
2023-02-26T12:05:50.198Z,98687.00
2023-02-26T12:08:25.473Z,98694.00
2023-02-26T12:10:57.933Z,98691.00
2023-02-26T12:13:34.111Z,98695.00
2023-02-26T12:16:17.197Z,98693.00
2023-02-26T12:19:01.394Z,98679.00
2023-02-26T12:21:57.957Z,98682.00
2023-02-26T12:24:47.945Z,98672.00
2023-02-26T12:27:49.319Z,98670.00
2023-02-26T12:30:40.530Z,98673.00
2023-02-26T12:33:31.650Z,98678.00
2023-02-26T12:36:17.533Z,98678.00
2023-02-26T12:39:15.674Z,98677.00
2023-02-26T12:41:44.933Z,98674.00
2023-02-26T12:44:40.560Z,98672.00
2023-02-26T12:47:37.811Z,98672.00
2023-02-26T12:50:36.772Z,98658.00
2023-02-26T12:53:34.948Z,98664.00
2023-02-26T12:56:39.358Z,98671.00
2023-02-26T12:59:44.495Z,98675.00
2023-02-26T13:02:45.186Z,98667.00
2023-02-26T13:05:27.069Z,98675.00
2023-02-26T13:08:28.073Z,98680.00
2023-02-26T13:11:11.726Z,98669.00
2023-02-26T13:13:50.436Z,98688.00
2023-02-26T13:16:39.156Z,98671.00
2023-02-26T13:19:21.713Z,98681.00
2023-02-26T13:21:53.248Z,98687.00
2023-02-26T13:24:30.745Z,98680.00
2023-02-26T13:26:57.533Z,98684.00
2023-02-26T13:29:40.285Z,98669.00
2023-02-26T13:32:14.581Z,98677.00
2023-02-26T13:34:52.719Z,98679.00
2023-02-26T13:37:33.111Z,98671.00
2023-02-26T13:40:18.492Z,98677.00
2023-02-26T13:43:06.799Z,98677.00
2023-02-26T13:45:45.549Z,98671.00
2023-02-26T13:48:39.623Z,98672.00
2023-02-26T13:51:06.144Z,98680.00
2023-02-26T13:53:33.609Z,98673.00
2023-02-26T13:56:32.457Z,98678.00
2023-02-26T13:59:15.547Z,98684.00
2023-02-26T14:01:46.894Z,98677.00
2023-02-26T14:04:22.577Z,98686.00
2023-02-26T14:06:56.498Z,98678.00
2023-02-26T14:09:23.045Z,98679.00
2023-02-26T14:12:08.964Z,98697.00
2023-02-26T14:14:43.261Z,98687.00
2023-02-26T14:17:09.943Z,98688.00
2023-02-26T14:19:47.638Z,98693.00
2023-02-26T14:22:31.174Z,98700.00
2023-02-26T14:25:05.350Z,98702.00
2023-02-26T14:27:35.918Z,98704.00
2023-02-26T14:30:30.819Z,98710.00
2023-02-26T14:32:57.444Z,98704.00
2023-02-26T14:35:35.106Z,98708.00
2023-02-26T14:38:12.664Z,98708.00
2023-02-26T14:40:45.755Z,98703.00
2023-02-26T14:43:44.318Z,98717.00
2023-02-26T14:46:11.350Z,98717.00
2023-02-26T14:48:39.056Z,98732.00
2023-02-26T14:51:32.675Z,98730.00
2023-02-26T14:54:24.583Z,98729.00
2023-02-26T14:57:10.106Z,98719.00
2023-02-26T14:59:39.219Z,98727.00
2023-02-26T15:02:18.843Z,98724.00
2023-02-26T15:04:57.266Z,98733.00
2023-02-26T15:07:42.559Z,98725.00
2023-02-26T15:10:33.934Z,98718.00
2023-02-26T15:13:25.960Z,98745.00
2023-02-26T15:16:02.725Z,98745.00
2023-02-26T15:19:06.280Z,98744.00
2023-02-26T15:21:57.876Z,98750.00
2023-02-26T15:24:24.557Z,98771.00
2023-02-26T15:27:00.083Z,98762.00
2023-02-26T15:29:31.272Z,98754.00
2023-02-26T15:32:13.291Z,98757.00
2023-02-26T15:34:45.775Z,98758.00
2023-02-26T15:37:21.986Z,98756.00
2023-02-26T15:39:50.122Z,98756.00
2023-02-26T15:42:19.451Z,98759.00
2023-02-26T15:44:56.760Z,98761.00
2023-02-26T15:47:24.311Z,98776.00
2023-02-26T15:49:51.033Z,98774.00
2023-02-26T15:52:21.572Z,98773.00
2023-02-26T15:54:53.214Z,98778.00
2023-02-26T15:57:22.037Z,98779.00
2023-02-26T15:59:52.405Z,98773.00
2023-02-26T16:02:29.868Z,98775.00
2023-02-26T16:04:56.352Z,98785.00
2023-02-26T16:07:23.527Z,98788.00
2023-02-26T16:09:52.172Z,98788.00
2023-02-26T16:12:20.049Z,98783.00
2023-02-26T16:14:53.499Z,98782.00
2023-02-26T16:17:27.072Z,98771.00
2023-02-26T16:19:55.883Z,98793.00
2023-02-26T16:22:28.553Z,98788.00
2023-02-26T16:25:02.647Z,98797.00
2023-02-26T16:27:31.796Z,98788.00
2023-02-26T16:30:00.431Z,98795.00
2023-02-26T16:32:31.675Z,98810.00
2023-02-26T16:35:00.842Z,98791.00
2023-02-26T16:37:33.825Z,98803.00
2023-02-26T16:40:26.354Z,98809.00
2023-02-26T16:43:06.152Z,98799.00
2023-02-26T16:45:35.997Z,98796.00
2023-02-26T16:48:06.595Z,98814.00
2023-02-26T16:50:35.301Z,98816.00
2023-02-26T16:53:08.199Z,98820.00
2023-02-26T16:55:39.380Z,98823.00
2023-02-26T16:58:11.943Z,98825.00
2023-02-26T17:00:38.840Z,98830.00
2023-02-26T17:03:16.508Z,98837.00
2023-02-26T17:06:09.469Z,98838.00
2023-02-26T17:08:46.335Z,98826.00
2023-02-26T17:11:27.236Z,98840.00
2023-02-26T17:14:15.348Z,98851.00
2023-02-26T17:16:41.907Z,98857.00
2023-02-26T17:19:09.520Z,98863.00
2023-02-26T17:21:42.395Z,98862.00
2023-02-26T17:24:21.048Z,98870.00
2023-02-26T17:26:48.594Z,98878.00
2023-02-26T17:29:19.502Z,98873.00
2023-02-26T17:31:46.369Z,98872.00
2023-02-26T17:34:13.186Z,98872.00
2023-02-26T17:36:39.689Z,98880.00
2023-02-26T17:39:06.434Z,98873.00
2023-02-26T17:41:34.253Z,98886.00
2023-02-26T17:44:01.422Z,98883.00
2023-02-26T17:46:28.177Z,98891.00
2023-02-26T17:48:54.731Z,98902.00
2023-02-26T17:51:21.398Z,98900.00
2023-02-26T17:53:48.811Z,98894.00
2023-02-26T17:56:21.768Z,98911.00
2023-02-26T17:58:49.345Z,98911.00
2023-02-26T18:01:16.473Z,98905.00
2023-02-26T18:03:43.445Z,98910.00
2023-02-26T18:06:14.099Z,98904.00
2023-02-26T18:08:40.831Z,98906.00
2023-02-26T18:11:07.992Z,98913.00
2023-02-26T18:13:34.564Z,98912.00
2023-02-26T18:16:02.782Z,98918.00
2023-02-26T18:18:30.230Z,98917.00
2023-02-26T18:20:56.802Z,98916.00
2023-02-26T18:23:24.124Z,98926.00
2023-02-26T18:25:52.787Z,98918.00
2023-02-26T18:28:25.071Z,98914.00
2023-02-26T18:30:52.777Z,98925.00
2023-02-26T18:33:20.191Z,98922.00
2023-02-26T18:35:53.004Z,98923.00
2023-02-26T18:38:22.130Z,98930.00
2023-02-26T18:40:49.163Z,98925.00
2023-02-26T18:43:16.313Z,98925.00
2023-02-26T18:45:44.513Z,98926.00
2023-02-26T18:48:13.918Z,98933.00
2023-02-26T18:50:40.730Z,98929.00
2023-02-26T18:53:07.329Z,98933.00
2023-02-26T18:55:36.369Z,98936.00
2023-02-26T18:58:04.500Z,98928.00
2023-02-26T19:00:31.356Z,98933.00
2023-02-26T19:02:58.458Z,98934.00
2023-02-26T19:05:26.586Z,98936.00
2023-02-26T19:07:54.681Z,98938.00
2023-02-26T19:10:22.039Z,98944.00
2023-02-26T19:12:50.786Z,98951.00
2023-02-26T19:15:18.118Z,98942.00
2023-02-26T19:17:45.070Z,98952.00
2023-02-26T19:20:12.887Z,98960.00
2023-02-26T19:22:42.262Z,98952.00
2023-02-26T19:25:10.133Z,98963.00
2023-02-26T19:27:38.026Z,98956.00
2023-02-26T19:30:06.604Z,98952.00
2023-02-26T19:32:33.436Z,98957.00
2023-02-26T19:35:00.241Z,98955.00
2023-02-26T19:37:27.087Z,98970.00
2023-02-26T19:39:53.734Z,98956.00
2023-02-26T19:42:20.692Z,98964.00
2023-02-26T19:44:47.255Z,98969.00
2023-02-26T19:47:13.759Z,98972.00
2023-02-26T19:49:44.236Z,98972.00
2023-02-26T19:52:12.056Z,98975.00
2023-02-26T19:54:38.812Z,98983.00
2023-02-26T19:57:05.304Z,98972.00
2023-02-26T19:59:32.284Z,98975.00
2023-02-26T20:01:59.117Z,98968.00
2023-02-26T20:04:25.695Z,98980.00
2023-02-26T20:06:52.452Z,98981.00
2023-02-26T20:09:20.114Z,98987.00
2023-02-26T20:11:46.731Z,98997.00
2023-02-26T20:14:13.296Z,98985.00
2023-02-26T20:16:40.169Z,98987.00
2023-02-26T20:19:06.709Z,98986.00
2023-02-26T20:21:33.277Z,98994.00
2023-02-26T20:23:59.928Z,98994.00
2023-02-26T20:26:26.542Z,98994.00
2023-02-26T20:28:53.101Z,98990.00
2023-02-26T20:31:20.102Z,98994.00
2023-02-26T20:33:46.699Z,98998.00
2023-02-26T20:36:13.532Z,99004.00
2023-02-26T20:38:40.477Z,98997.00
2023-02-26T20:41:07.003Z,99005.00
2023-02-26T20:43:33.575Z,99010.00
2023-02-26T20:46:00.366Z,99007.00
2023-02-26T20:48:27.326Z,99006.00
2023-02-26T20:51:00.369Z,99016.00
2023-02-26T20:53:26.920Z,99016.00
2023-02-26T20:55:55.269Z,99015.00
2023-02-26T20:58:21.822Z,99030.00
2023-02-26T21:00:48.407Z,99020.00
2023-02-26T21:03:15.212Z,99019.00
2023-02-26T21:05:42.943Z,99023.00
2023-02-26T21:08:10.553Z,99019.00
2023-02-26T21:10:37.138Z,99013.00
2023-02-26T21:13:03.811Z,99018.00
2023-02-26T21:15:30.360Z,99020.00
2023-02-26T21:17:56.891Z,99019.00
2023-02-26T21:20:23.509Z,99019.00
2023-02-26T21:22:50.340Z,99020.00
2023-02-26T21:25:17.620Z,99017.00
2023-02-26T21:27:44.538Z,99031.00
2023-02-26T21:30:12.222Z,99028.00
2023-02-26T21:32:39.612Z,99020.00
2023-02-26T21:35:07.503Z,99029.00
2023-02-26T21:37:34.135Z,99028.00
2023-02-26T21:40:00.742Z,99031.00
2023-02-26T21:42:27.589Z,99030.00
2023-02-26T21:44:54.128Z,99029.00
2023-02-26T21:47:20.684Z,99033.00
2023-02-26T21:49:47.219Z,99025.00
2023-02-26T21:52:13.813Z,99031.00
2023-02-26T21:54:40.880Z,99039.00
2023-02-26T21:57:07.793Z,99031.00
2023-02-26T21:59:34.786Z,99032.00
2023-02-26T22:02:02.012Z,99037.00
2023-02-26T22:04:28.696Z,99037.00
2023-02-26T22:06:55.292Z,99033.00
2023-02-26T22:09:22.880Z,99028.00
2023-02-26T22:11:49.589Z,99038.00
2023-02-26T22:14:16.590Z,99030.00
2023-02-26T22:16:43.185Z,99027.00
2023-02-26T22:19:09.751Z,99037.00
2023-02-26T22:21:36.270Z,99030.00
2023-02-26T22:24:03.762Z,99030.00
2023-02-26T22:26:30.743Z,99034.00
2023-02-26T22:28:59.610Z,99028.00
2023-02-26T22:31:31.885Z,99036.00
2023-02-26T22:33:59.315Z,99035.00
2023-02-26T22:36:26.040Z,99031.00
2023-02-26T22:38:52.553Z,99034.00
2023-02-26T22:41:19.105Z,99037.00
2023-02-26T22:43:45.625Z,99035.00
2023-02-26T22:46:12.147Z,99032.00
2023-02-26T22:48:38.708Z,99033.00
2023-02-26T22:51:05.597Z,99030.00
2023-02-26T22:53:32.311Z,99028.00
2023-02-26T22:55:59.165Z,99034.00
2023-02-26T22:58:25.855Z,99037.00
2023-02-26T23:01:02.186Z,99025.00
2023-02-26T23:03:29.444Z,99042.00
2023-02-26T23:05:56.752Z,99040.00
2023-02-26T23:08:23.442Z,99033.00
2023-02-26T23:10:50.108Z,99029.00
2023-02-26T23:13:16.645Z,99034.00
2023-02-26T23:15:43.277Z,99030.00
2023-02-26T23:18:09.862Z,99031.00
2023-02-26T23:20:36.413Z,99029.00
2023-02-26T23:23:03.268Z,99025.00
2023-02-26T23:25:29.834Z,99024.00
2023-02-26T23:27:56.604Z,99036.00
2023-02-26T23:30:23.701Z,99020.00
2023-02-26T23:32:50.992Z,99029.00
2023-02-26T23:35:17.633Z,99023.00
2023-02-26T23:37:44.161Z,99035.00
2023-02-26T23:40:14.504Z,99032.00
2023-02-26T23:42:42.206Z,99029.00
2023-02-26T23:45:09.387Z,99035.00
2023-02-26T23:47:36.168Z,99035.00
2023-02-26T23:50:03.408Z,99027.00
2023-02-26T23:52:30.067Z,99035.00
2023-02-26T23:54:57.409Z,99034.00
2023-02-26T23:57:24.517Z,99033.00
2023-02-26T23:59:51.051Z,99026.00
